• Join FlightAware (Why Join?)
  • Login
  • US Flag 
12:35AM EDT


 

Airport Tracker/Info


-or-


 

Live Flight TrackerFlight Track Log ✈ DAL268 ✈ 02-Oct-2013 ✈ KJFK - LLBG / TLV

Flight Track Log - Related Links

Times and Time Zones

All times are in EDT time to prevent confusion due to time zone crossing. See the DAL268 flight status page for this flight to view local times or setup timezone preferences in your user account.

Time Position Orientation Groundspeed Altitude Reporting Facility
EDT Latitude Longitude Course Direction KTS MPH feet Rate Location/Type
09:27PM 40.6310 -73.7830 303° West 115 132  Level FlightAware
09:27PM 40.6380 -73.7980 302° West 138 159 720 Level FlightAware
09:28PM 40.6480 -73.8230 298° West 180 207 600 1,380 Climbing FlightAware
09:28PM 40.6490 -73.8320 278° West 189 217 800 1,500 Climbing FlightAware
09:28PM 40.6420 -73.8540 247° West 200 230 1,300 1,440 Climbing FlightAware
09:28PM 40.6370 -73.8610 227° Southwest 202 232 1,500 1,380 Climbing FlightAware
09:29PM 40.6270 -73.8710 217° Southwest 214 246 1,800 1,500 Climbing FlightAware
09:29PM 40.6200 -73.8760 208° Southwest 220 253 2,000 1,500 Climbing FlightAware
09:29PM 40.6130 -73.8790 198° South 225 259 2,200 1,500 Climbing FlightAware
09:29PM 40.6080 -73.8800 189° South 231 266 2,300 480 Climbing FlightAware
09:29PM 40.6010 -73.8800 180° South 241 277 2,300 360 Level FlightAware
09:29PM 40.5910 -73.8770 167° South 254 292 2,400 1,020 Climbing FlightAware
09:29PM 40.5800 -73.8710 157° South 265 305 2,600 840 Climbing FlightAware
09:29PM 40.5700 -73.8590 138° Southeast 276 318 2,700 600 Climbing FlightAware
09:30PM 40.5630 -73.8480 130° Southeast 284 327 2,800 1,200 Climbing FlightAware
09:30PM 40.5570 -73.8290 113° Southeast 288 331 3,100 1,800 Climbing FlightAware
09:30PM 40.5540 -73.8150 106° East 290 334 3,400 2,100 Climbing FlightAware
09:30PM 40.5520 -73.7990 99° East 295 339 3,700 2,040 Climbing FlightAware
09:31PM 40.5550 -73.7470 86° East 305 351 4,700 2,160 Climbing FlightAware
09:31PM 40.5600 -73.7140 79° East 311 358 5,400 2,580 Climbing FlightAware
09:31PM 40.5650 -73.6750 80° East 311 358 6,400 2,400 Climbing FlightAware
09:32PM 40.5700 -73.6300 82° East 323 372 7,200 2,220 Climbing FlightAware
09:32PM 40.5700 -73.6120 90° East 327 376 7,600 2,520 Climbing FlightAware
09:32PM 40.5690 -73.5530 91° East 331 381 8,900 2,280 Climbing FlightAware
09:33PM 40.5660 -73.4940 94° East 339 390 9,900 1,740 Climbing FlightAware
09:33PM 40.5640 -73.4150 92° East 366 421 10,800 1,200 Climbing FlightAware
09:34PM 40.5620 -73.3420 92° East 396 456 11,300 1,080 Climbing FlightAware
09:34PM 40.5600 -73.2580 92° East 423 487 12,000 1,560 Climbing FlightAware
09:35PM 40.5580 -73.1630 92° East 437 503 13,100 1,920 Climbing FlightAware
09:36PM 40.5560 -73.0610 91° East 448 516 14,400 1,980 Climbing FlightAware
09:36PM 40.5650 -72.9710 82° East 448 516 15,500 1,980 Climbing FlightAware
09:37PM 40.5880 -72.8810 71° East 451 519 16,700 1,980 Climbing FlightAware
09:37PM 40.6110 -72.7900 72° East 456 525 17,800 1,740 Climbing FlightAware
09:38PM 40.6370 -72.6890 71° East 466 536 18,900 1,620 Climbing FlightAware
09:39PM 40.6610 -72.5950 71° East 473 544 19,800 1,560 Climbing FlightAware
09:39PM 40.6850 -72.5000 72° East 479 551 20,700 1,440 Climbing FlightAware
09:40PM 40.7080 -72.4050 72° East 486 559 21,500 1,440 Climbing FlightAware
09:40PM 40.7330 -72.3040 72° East 492 566 22,400 1,500 Climbing FlightAware
09:41PM 40.7590 -72.2010 72° East 498 573 23,300 1,320 Climbing FlightAware
09:41PM 40.7810 -72.1120 72° East 503 579 23,900 1,260 Climbing FlightAware
09:42PM 40.8100 -71.9950 72° East 510 587 24,800 1,140 Climbing FlightAware
09:43PM 40.8330 -71.9030 72° East 516 594 25,300 1,080 Climbing FlightAware
09:43PM 40.8590 -71.7950 72° East 520 598 26,000 540 Climbing FlightAware
09:44PM 40.8830 -71.7000 71° East 520 598 26,000  Level FlightAware
09:44PM 40.9050 -71.6080 72° East 520 598 26,000  Level FlightAware
09:45PM 40.9280 -71.5150 72° East 520 598 26,000  Level FlightAware
09:46PM 40.9510 -71.4220 72° East 520 598 26,000 2,280 Level FlightAware
09:46PM 41.0220 -71.3170 48° Northeast 29,000 3,660 Climbing FlightAware
09:47PM 41.0840 -71.2190 50° Northeast 510 587 29,800 1,200 Climbing FlightAware
09:47PM 41.1310 -71.1460 49° Northeast 509 586 30,400 1,020 Climbing FlightAware
09:48PM 41.1880 -71.0560 50° Northeast 510 587 31,000 480 Climbing FlightAware
09:48PM 41.2440 -70.9700 49° Northeast 510 587 31,000  Level FlightAware
09:49PM 41.2930 -70.8920 50° Northeast 509 586 31,000  Level FlightAware
09:50PM 41.3380 -70.8200 50° Northeast 509 586 31,000  Level FlightAware
09:50PM 41.4100 -70.7070 50° Northeast 509 586 31,000  Level FlightAware
09:51PM 41.4870 -70.5840 50° Northeast 511 588 31,000  Level FlightAware
09:52PM 41.5340 -70.5100 50° Northeast 511 588 31,000  Level FlightAware
09:52PM 41.5880 -70.4240 50° Northeast 513 590 31,000  Level FlightAware
09:53PM 41.6360 -70.3470 50° Northeast 513 590 31,000  Level FlightAware
09:53PM 41.6668 -70.2961 51° Northeast 516 594 31,000  Level FlightAware ADS-B (KBOS)
09:53PM 41.7030 -70.2380 50° Northeast 513 590 31,000  Level FlightAware
09:54PM 41.7550 -70.1510 51° Northeast 516 594 31,000  Level FlightAware
09:55PM 41.8130 -70.0560 51° Northeast 516 594 31,000  Level FlightAware
09:55PM 41.8378 -70.0144 51° Northeast 516 594 31,000  Level FlightAware ADS-B (KBOS)
09:56PM 41.9443 -69.8357 51° Northeast 517 595 31,000  Level FlightAware ADS-B (KBOS)
09:57PM 41.9888 -69.7603 51° Northeast 517 595 31,000  Level FlightAware ADS-B (KBOS)
09:57PM 42.0352 -69.6818 52° Northeast 518 596 31,000  Level FlightAware ADS-B (KBOS)
09:58PM 42.0930 -69.5830 52° Northeast 518 596 31,000  Level FlightAware
09:58PM 42.1099 -69.5551 51° Northeast 518 596 31,000  Level FlightAware ADS-B (KBOS)
09:58PM 42.1540 -69.4800 52° Northeast 519 597 31,000  Level FlightAware
09:59PM 42.1690 -69.4548 51° Northeast 519 597 31,000  Level FlightAware ADS-B (KBOS)
09:59PM 42.2140 -69.3782 52° Northeast 519 597 31,000  Level FlightAware ADS-B (KBOS)
10:00PM 42.2810 -69.2634 52° Northeast 520 598 31,000  Level FlightAware ADS-B (CYQI)
10:00PM 42.3203 -69.1960 52° Northeast 520 598 31,000  Level FlightAware ADS-B (KBOS)
10:01PM 42.3766 -69.0997 52° Northeast 520 598 31,000  Level FlightAware ADS-B (KBOS)
10:02PM 42.4647 -68.9476 52° Northeast 520 598 31,000  Level FlightAware ADS-B (CYQI)
10:03PM 42.5340 -68.8270 52° Northeast 520 598 31,000  Level FlightAware
10:03PM 42.5890 -68.7360 51° Northeast 520 598 31,000  Level FlightAware
10:04PM 42.6350 -68.6580 51° Northeast 520 598 31,000  Level FlightAware
10:04PM 42.6881 -68.5585 54° Northeast 521 600 31,000  Level FlightAware ADS-B (CYQI)
10:05PM 42.7748 -68.4058 52° Northeast 521 600 31,000  Level FlightAware ADS-B (CYQI)
10:06PM 42.7750 -68.4220 271° West 520 598 31,000  Level FlightAware
10:06PM 42.8551 -68.2632 55° Northeast 522 601 31,000  Level FlightAware ADS-B (CYQI)
10:07PM 42.8973 -68.1881 52° Northeast 522 601 31,000  Level FlightAware ADS-B (CYQI)
10:07PM 42.9577 -68.0802 53° Northeast 522 601 31,000  Level FlightAware ADS-B (CYQI)
10:08PM 43.0247 -67.9608 52° Northeast 523 602 31,000  Level FlightAware ADS-B (CYQI)
10:09PM 43.0834 -67.8558 53° Northeast 524 603 31,000  Level FlightAware ADS-B (CYQI)
10:09PM 43.1315 -67.7693 53° Northeast 523 602 31,000  Level FlightAware ADS-B (CYQI)
10:10PM 43.1757 -67.6896 53° Northeast 522 601 31,000  Level FlightAware ADS-B (CYQI)
10:10PM 43.2216 -67.6059 53° Northeast 523 602 31,000  Level FlightAware ADS-B (CYQI)
10:11PM 43.2789 -67.5010 53° Northeast 524 603 31,000  Level FlightAware ADS-B (CYQI)
10:12PM 43.3505 -67.3701 53° Northeast 524 603 31,000  Level FlightAware ADS-B (CYQI)
10:12PM 43.3970 -67.2850 53° Northeast 518 596 31,000  Level FlightAware
10:13PM 43.4102 -67.2604 53° Northeast 524 603 31,000  Level FlightAware ADS-B (CYQI)
10:13PM 43.4550 -67.1782 53° Northeast 524 603 31,000  Level FlightAware ADS-B (CYQI)
10:14PM 43.4958 -67.1033 53° Northeast 523 602 31,000  Level FlightAware ADS-B (CYQI)
10:14PM 43.5498 -67.0034 53° Northeast 523 602 31,000  Level FlightAware ADS-B (CYQI)
10:15PM 43.5940 -66.9210 53° Northeast 525 604 31,000  Level FlightAware
10:15PM 43.6275 -66.8566 54° Northeast 525 604 31,000  Level FlightAware ADS-B (CYQI)
10:16PM 43.6713 -66.7725 54° Northeast 526 605 31,000  Level FlightAware ADS-B (CYQI)
10:16PM 43.7141 -66.6910 54° Northeast 526 605 31,000  Level FlightAware ADS-B (CYQI)
10:17PM 43.7558 -66.6113 54° Northeast 528 608 31,000  Level FlightAware ADS-B (CYQI)
10:17PM 43.7986 -66.5296 54° Northeast 530 610 31,000  Level FlightAware ADS-B (CYQI)
10:18PM 43.8420 -66.4460 54° Northeast 531 611 31,000  Level FlightAware
10:18PM 43.8579 -66.4161 54° Northeast 532 612 31,000  Level FlightAware ADS-B (CYQI)
10:18PM 43.8998 -66.3356 54° Northeast 532 612 31,000  Level FlightAware ADS-B (CYQI)
10:19PM 43.9420 -66.2530 55° Northeast 533 613 31,000  Level FlightAware
10:19PM 43.9742 -66.1917 54° Northeast 533 613 31,000  Level FlightAware ADS-B (CYQI)
10:20PM 44.0176 -66.1069 55° Northeast 533 613 31,000  Level FlightAware ADS-B (CYQI)
10:20PM 44.0775 -65.9888 55° Northeast 535 616 31,000  Level FlightAware ADS-B (CYQI)
10:21PM 44.1158 -65.9133 55° Northeast 536 617 31,000  Level FlightAware ADS-B (CYQI)
10:21PM 44.1630 -65.8195 55° Northeast 536 617 31,000  Level FlightAware ADS-B (CYQI)
10:22PM 44.2125 -65.7214 55° Northeast 537 618 31,000  Level FlightAware ADS-B (CYQI)
10:22PM 44.2590 -65.6290 55° Northeast 537 618 31,000  Level FlightAware ADS-B (CYQI)
10:23PM 44.3043 -65.5389 55° Northeast 537 618 31,000  Level FlightAware ADS-B (CYQI)
10:23PM 44.3367 -65.4738 55° Northeast 537 618 31,000  Level FlightAware ADS-B (CYQI)
10:24PM 44.3915 -65.3647 55° Northeast 537 618 31,000  Level FlightAware ADS-B (CYQI)
10:25PM 44.4476 -65.2522 55° Northeast 538 619 31,000  Level FlightAware ADS-B (CYQI)
10:25PM 44.5072 -65.1329 55° Northeast 540 621 31,000  Level FlightAware ADS-B (CYQI)
10:26PM 44.5455 -65.0558 55° Northeast 540 621 31,000  Level FlightAware ADS-B (CYQI)
10:26PM 44.5935 -64.9588 55° Northeast 540 621 31,000  Level FlightAware ADS-B (CYQI)
10:27PM 44.6380 -64.8686 55° Northeast 540 621 31,000  Level FlightAware ADS-B (CYQI)
10:27PM 44.6868 -64.7692 55° Northeast 540 621 31,000  Level FlightAware ADS-B (CYQI)
10:28PM 44.7227 -64.6964 55° Northeast 541 623 31,000  Level FlightAware ADS-B (CYQI)
10:29PM 44.7872 -64.5646 55° Northeast 541 623 31,000  Level FlightAware ADS-B (CYQI)
10:29PM 44.8520 -64.4320 55° Northeast 542 624 31,000  Level FlightAware
10:30PM 44.8787 -64.3761 56° Northeast 542 624 31,000  Level FlightAware ADS-B (CYQI)
10:30PM 44.9208 -64.2890 56° Northeast 543 625 31,000  Level FlightAware ADS-B (CYQI)
10:31PM 44.9598 -64.2079 56° Northeast 542 624 31,000  Level FlightAware ADS-B (CYQI)
10:32PM 45.0570 -64.0060 56° Northeast 543 625 31,000  Level FlightAware
10:32PM 45.0843 -63.9482 56° Northeast 543 625 31,000  Level FlightAware ADS-B (CYQI)
10:33PM 45.1497 -63.8109 56° Northeast 544 626 31,000  Level FlightAware ADS-B (CYQI)
10:34PM 45.2030 -63.6980 56° Northeast 543 625 31,000  Level FlightAware
10:34PM 45.2150 -63.6728 56° Northeast 543 625 31,000  Level FlightAware ADS-B (CYQI)
10:34PM 45.2490 -63.6000 56° Northeast 543 625 31,000  Level FlightAware
10:34PM 45.2646 -63.5672 56° Northeast 542 624 31,000  Level FlightAware ADS-B (CYQI)
10:35PM 45.3080 -63.4740 56° Northeast 542 624 31,000  Level FlightAware
10:35PM 45.3500 -63.3850 56° Northeast 541 623 31,000  Level FlightAware
10:36PM 45.3980 -63.2820 56° Northeast 540 621 31,000  Level FlightAware
10:37PM 45.4460 -63.1790 56° Northeast 540 621 31,000  Level FlightAware
10:37PM 45.4980 -63.0670 56° Northeast 539 620 31,000  Level FlightAware
10:38PM 45.5410 -62.9740 57° Northeast 539 620 31,000  Level FlightAware
10:38PM 45.5820 -62.8820 57° Northeast 539 620 31,000  Level FlightAware
10:39PM 45.6250 -62.7880 57° Northeast 539 620 31,000  Level FlightAware
10:40PM 45.6660 -62.6970 57° Northeast 539 620 31,000  Level FlightAware
10:40PM 45.7090 -62.6020 57° Northeast 539 620 31,000  Level FlightAware
10:41PM 45.7520 -62.5080 57° Northeast 539 620 31,000  Level FlightAware
10:41PM 45.7930 -62.4160 57° Northeast 539 620 31,000  Level FlightAware
10:42PM 45.8350 -62.3250 56° Northeast 539 620 31,000  Level FlightAware
10:43PM 45.8760 -62.2330 57° Northeast 539 620 31,000  Level FlightAware
10:43PM 45.9950 -61.9860 55° Northeast 539 620 31,000  Level FlightAware
10:44PM 46.0440 -61.8780 57° Northeast 538 619 31,000  Level FlightAware
10:44PM 46.0930 -61.7680 57° Northeast 535 616 31,000  Level FlightAware
10:45PM 46.1410 -61.6590 58° Northeast 535 616 31,000  Level FlightAware
10:46PM 46.1880 -61.5520 58° Northeast 537 618 31,000  Level FlightAware
10:46PM 46.2320 -61.4530 57° Northeast 537 618 31,000  Level FlightAware
10:47PM 46.2800 -61.3430 58° Northeast 537 618 31,000  Level FlightAware
10:47PM 46.3270 -61.2360 58° Northeast 539 620 31,000  Level FlightAware
10:48PM 46.3670 -61.1440 58° Northeast 542 624 31,000  Level FlightAware
10:48PM 46.4200 -61.0200 58° Northeast 544 626 31,000  Level FlightAware
10:49PM 46.4680 -60.9090 58° Northeast 546 628 31,000  Level FlightAware
10:50PM 46.5100 -60.8090 59° Northeast 544 626 31,000  Level FlightAware
10:50PM 46.5590 -60.6950 58° Northeast 542 624 31,000  Level FlightAware
10:51PM 46.6060 -60.5830 59° Northeast 544 626 31,000  Level FlightAware
10:51PM 46.6470 -60.4850 59° Northeast 544 626 31,000  Level FlightAware
10:52PM 46.6970 -60.3640 59° Northeast 547 629 31,000  Level FlightAware
10:53PM 46.7440 -60.2520 58° Northeast 544 626 31,000  Level FlightAware
10:53PM 46.7850 -60.1520 59° Northeast 541 623 31,000  Level FlightAware
10:54PM 46.8330 -60.0380 58° Northeast 544 626 31,000  Level FlightAware
10:54PM 46.8790 -59.9290 58° Northeast 546 628 31,000  Level FlightAware
10:55PM 46.9210 -59.8260 59° Northeast 548 631 31,000  Level FlightAware
10:55PM 46.9720 -59.7040 58° Northeast 549 632 31,000  Level FlightAware
10:56PM 47.0160 -59.5960 59° Northeast 550 633 31,000  Level FlightAware
10:57PM 47.0630 -59.4820 59° Northeast 549 632 31,000  Level FlightAware
10:57PM 47.1050 -59.3780 59° Northeast 549 632 31,000  Level FlightAware
10:58PM 47.1500 -59.2680 59° Northeast 550 633 31,000  Level FlightAware
10:58PM 47.1930 -59.1580 60° Northeast 551 634 31,000  Level FlightAware
10:59PM 47.2590 -58.9950 59° Northeast 552 635 31,000  Level FlightAware
11:00PM 47.3000 -58.8930 59° Northeast 552 635 31,000  Level FlightAware
11:00PM 47.3400 -58.7940 59° Northeast 552 635 31,000  Level FlightAware
11:01PM 47.3810 -58.6960 58° Northeast 552 635 31,000  Level FlightAware
11:02PM 47.4450 -58.5210 62° Northeast 542 624 31,000  Level FlightAware
11:02PM 47.4890 -58.4100 60° Northeast 542 624 31,000  Level FlightAware
11:03PM 47.5360 -58.2890 60° Northeast 541 623 31,000  Level FlightAware
11:04PM 47.5810 -58.1750 60° Northeast 541 623 31,000  Level FlightAware
11:04PM 47.6300 -58.0480 60° Northeast 541 623 31,000  Level FlightAware
11:05PM 47.6820 -57.9120 60° Northeast 541 623 31,000  Level FlightAware
11:06PM 47.7430 -57.7540 60° Northeast 540 621 31,000  Level FlightAware
11:06PM 47.7870 -57.6380 61° Northeast 539 620 31,000  Level FlightAware
11:07PM 47.8370 -57.5070 60° Northeast 539 620 31,000  Level FlightAware
11:08PM 47.8790 -57.3800 64° Northeast 541 623 31,000  Level FlightAware
11:08PM 47.9170 -57.2630 64° Northeast 541 623 31,000  Level FlightAware
11:09PM 47.9620 -57.1240 64° Northeast 542 624 31,000  Level FlightAware
11:09PM 47.9950 -57.0230 64° Northeast 541 623 31,000  Level FlightAware
11:10PM 48.0330 -56.9100 63° Northeast 541 623 31,000  Level FlightAware
11:11PM 48.0780 -56.7720 64° Northeast 539 620 31,000  Level FlightAware
11:11PM 48.1110 -56.6700 64° Northeast 537 618 31,000  Level FlightAware
11:12PM 48.1480 -56.5530 65° Northeast 534 615 31,000  Level FlightAware
11:12PM 48.1880 -56.4280 64° Northeast 532 612 31,000  Level FlightAware
11:13PM 48.2230 -56.3200 64° Northeast 530 610 31,000  Level FlightAware
11:13PM 48.2630 -56.1930 65° Northeast 528 608 31,000  Level FlightAware
11:14PM 48.3000 -56.0750 65° Northeast 527 606 31,000  Level FlightAware
11:15PM 48.3320 -55.9720 65° Northeast 526 605 31,000  Level FlightAware
11:15PM 48.3730 -55.8400 65° Northeast 525 604 31,000  Level FlightAware
11:16PM 48.4080 -55.7270 65° Northeast 526 605 31,000  Level FlightAware
11:16PM 48.4440 -55.6090 65° Northeast 527 606 31,000  Level FlightAware
11:17PM 48.4850 -55.4770 65° Northeast 529 609 31,000  Level FlightAware
11:18PM 48.5210 -55.3590 65° Northeast 528 608 31,000  Level FlightAware
11:18PM 48.5560 -55.2430 65° Northeast 528 608 31,000  Level FlightAware
11:19PM 48.5930 -55.1220 65° Northeast 528 608 31,000  Level FlightAware
11:19PM 48.6280 -55.0070 65° Northeast 527 606 31,000  Level FlightAware
11:20PM 48.6630 -54.8910 65° Northeast 528 608 31,000  Level FlightAware
11:21PM 48.6990 -54.7700 66° East 528 608 31,000  Level FlightAware
11:21PM 48.7340 -54.6530 66° East 526 605 31,000  Level FlightAware
11:22PM 48.7680 -54.5360 66° East 523 602 31,000 60 Level FlightAware
11:22PM 48.8030 -54.4180 66° East 525 604 31,100 660 Climbing FlightAware
11:23PM 48.8370 -54.3020 66° East 525 604 31,800 720 Climbing FlightAware
11:23PM 48.8710 -54.1820 67° East 525 604 32,000 120 Climbing FlightAware
11:24PM 48.9050 -54.0680 66° East 522 601 32,000  Level FlightAware
11:25PM 48.9390 -53.9480 67° East 520 598 32,000  Level FlightAware
11:25PM 48.9730 -53.8300 66° East 520 598 32,000  Level FlightAware
11:26PM 49.0060 -53.7150 66° East 520 598 32,000  Level FlightAware
11:26PM 49.0400 -53.5950 67° East 520 598 32,000  Level FlightAware
11:27PM 49.0730 -53.4800 66° East 519 597 32,000  Level FlightAware
11:28PM 49.1070 -53.3610 66° East 521 600 32,000  Level FlightAware
11:28PM 49.1400 -53.2440 67° East 522 601 32,000  Level FlightAware
11:29PM 49.1740 -53.1260 66° East 523 602 32,000  Level FlightAware
11:29PM 49.2050 -53.0120 67° East 523 602 32,000  Level FlightAware
11:30PM 49.2440 -52.8720 67° East 522 601 32,000  Level FlightAware
11:31PM 49.2800 -52.7400 67° East 522 601 32,000  Level FlightAware
11:31PM 49.3130 -52.6190 67° East 521 600 32,000  Level FlightAware
11:32PM 49.3440 -52.5050 67° East 521 600 32,000  Level FlightAware
11:32PM 49.3770 -52.3850 67° East 521 600 32,000  Level FlightAware
11:33PM 49.4060 -52.2810 67° East 521 600 32,000  Level FlightAware
11:34PM 49.4350 -52.1760 67° East 521 600 32,000  Level FlightAware
11:34PM 49.4640 -52.0690 67° East 521 600 32,000  Level FlightAware
11:35PM 49.5080 -51.8890 69° East 520 598 32,000  Level FlightAware
11:35PM 49.5440 -51.7510 68° East 520 598 32,000  Level FlightAware
11:36PM 49.5730 -51.6430 67° East 520 598 32,000  Level FlightAware
11:37PM 49.6000 -51.5370 69° East 520 598 32,000  Level FlightAware
11:37PM 49.6280 -51.4320 68° East 520 598 32,000  Level FlightAware
11:38PM 49.6550 -51.3270 68° East 520 598 32,000  Level FlightAware
11:38PM 49.6830 -51.2210 68° East 520 598 32,000  Level FlightAware
11:39PM 49.7100 -51.1160 68° East 520 598 32,000  Level FlightAware
11:40PM 49.7380 -51.0100 68° East 520 598 32,000  Level FlightAware
11:40PM 49.7640 -50.9100 68° East 520 598 32,000  Level FlightAware
11:41PM 49.7910 -50.8040 68° East 520 598 32,000  Level FlightAware
11:41PM 49.8190 -50.6990 68° East 520 598 32,000  Level FlightAware
11:42PM 49.8470 -50.5930 68° East 520 598 32,000  Level FlightAware
11:43PM 49.8750 -50.4840 68° East 520 598 32,000  Level FlightAware
11:43PM 49.9020 -50.3780 68° East 520 598 32,000  Level FlightAware
11:44PM 49.9300 -50.2720 68° East 520 598 32,000  Level FlightAware
11:44PM 49.9580 -50.1630 68° East 520 598 32,000  Level FlightAware
11:45PM 49.9860 -50.0570 68° East 520 598 32,000  Level FlightAware
11:46PM 50.1167 -49.3833 68° East 530 610 32,000  Level Gander Center
11:47PM 50.1667 -49.1667 69° East 530 610 32,000  Level Gander Center
11:48PM 50.0000 -50.0000 69° East 539 620 32,000  Level ETMS Enhanced Traffic Management System
11:48PM 50.2333 -48.9333 66° East 530 610 32,000  Level Gander Center
11:49PM 50.3000 -48.7500 60° Northeast 530 610 32,000  Level Gander Center
11:51PM 50.3500 -48.4833 74° East 540 621 32,000  Level Gander Center
11:52PM 50.3833 -48.2500 77° East 540 621 32,000  Level Gander Center
11:53PM 50.4500 -48.0333 64° Northeast 550 633 32,000  Level Gander Center
11:55PM 50.4913 -47.7418 70° East  Level FlightAware Approximate
12:02AM 50.8396 -46.2066 70° East  Level FlightAware Approximate
12:03AM 50.8877 -45.9855 71° East  Level FlightAware Approximate
12:04AM 50.9354 -45.7639 71° East  Level FlightAware Approximate
12:05AM 50.9826 -45.5418 71° East  Level FlightAware Approximate
12:06AM 51.0295 -45.3193 71° East  Level FlightAware Approximate
12:07AM 51.0759 -45.0963 72° East  Level FlightAware Approximate
12:08AM 51.1219 -44.8729 72° East  Level FlightAware Approximate
12:09AM 51.1675 -44.6491 72° East  Level FlightAware Approximate
12:10AM 51.2126 -44.4248 72° East  Level FlightAware Approximate
12:11AM 51.2573 -44.2001 72° East  Level FlightAware Approximate
12:12AM 51.3016 -43.9749 72° East  Level FlightAware Approximate
12:13AM 51.3454 -43.7493 73° East  Level FlightAware Approximate
12:14AM 51.3889 -43.5233 73° East  Level FlightAware Approximate
12:15AM 51.4318 -43.2969 73° East  Level FlightAware Approximate
12:16AM 51.4744 -43.0700 73° East  Level FlightAware Approximate
12:17AM 51.5165 -42.8427 73° East  Level FlightAware Approximate
12:18AM 51.5581 -42.6150 74° East  Level FlightAware Approximate
12:19AM 51.5993 -42.3868 74° East  Level FlightAware Approximate
12:20AM 51.6401 -42.1583 74° East  Level FlightAware Approximate
12:21AM 51.6805 -41.9294 74° East  Level FlightAware Approximate
12:22AM 51.7203 -41.7000 74° East  Level FlightAware Approximate
12:23AM 51.7598 -41.4702 74° East  Level FlightAware Approximate
12:24AM 51.7988 -41.2401 75° East  Level FlightAware Approximate
12:25AM 51.8373 -41.0095 75° East  Level FlightAware Approximate
12:26AM 51.8754 -40.7786 75° East  Level FlightAware Approximate
12:27AM 51.9130 -40.5472 75° East  Level FlightAware Approximate
12:28AM 51.9502 -40.3155 75° East  Level FlightAware Approximate
12:29AM 51.9869 -40.0834 76° East  Level FlightAware Approximate
12:30AM 52.0056 -39.8465 87° East  Level FlightAware Approximate
12:31AM 52.0140 -39.6071 87° East  Level FlightAware Approximate
12:32AM 52.0219 -39.3675 87° East  Level FlightAware Approximate
12:32AM 52.0000 -40.0000 86° East 540 621 32,000  Level ETMS Enhanced Traffic Management System
12:33AM 52.0293 -39.1279 87° East  Level FlightAware Approximate
12:34AM 52.0362 -38.8882 87° East  Level FlightAware Approximate
12:35AM 52.0426 -38.6484 87° East  Level FlightAware Approximate
12:36AM 52.0486 -38.4085 88° East  Level FlightAware Approximate
12:37AM 52.0540 -38.1686 88° East  Level FlightAware Approximate
12:38AM 52.0781 -37.5640 88° East 540 621 32,000  Level FlightAware Transoceanic
12:39AM 52.0831 -37.3200 88° East 540 621 32,000  Level FlightAware Transoceanic
12:40AM 52.0877 -37.0759 88° East 540 621 32,000  Level FlightAware Transoceanic
12:41AM 52.0917 -36.8318 89° East 540 621 32,000  Level FlightAware Transoceanic
12:42AM 52.0953 -36.5876 89° East 540 621 32,000  Level FlightAware Transoceanic
12:43AM 52.0983 -36.3434 89° East 540 621 32,000  Level FlightAware Transoceanic
12:44AM 52.1008 -36.0992 89° East 540 621 32,000  Level FlightAware Transoceanic
12:45AM 52.1028 -35.8550 89° East 540 621 32,000  Level FlightAware Transoceanic
12:46AM 52.1044 -35.6107 90° East 540 621 32,000  Level FlightAware Transoceanic
12:47AM 52.1054 -35.3664 90° East 540 621 32,000  Level FlightAware Transoceanic
12:48AM 52.1059 -35.1221 90° East 540 621 32,000  Level FlightAware Transoceanic
12:49AM 52.1059 -34.8779 90° East 540 621 32,000  Level FlightAware Transoceanic
12:50AM 52.1054 -34.6336 90° East 540 621 32,000  Level FlightAware Transoceanic
12:51AM 52.1044 -34.3893 90° East 540 621 32,000  Level FlightAware Transoceanic
12:52AM 52.1028 -34.1450 91° East 540 621 32,000  Level FlightAware Transoceanic
12:53AM 52.1008 -33.9008 91° East 540 621 32,000  Level FlightAware Transoceanic
12:54AM 52.0983 -33.6566 91° East 540 621 32,000  Level FlightAware Transoceanic
12:55AM 52.0953 -33.4124 91° East 540 621 32,000  Level FlightAware Transoceanic
12:56AM 52.0917 -33.1682 91° East 540 621 32,000  Level FlightAware Transoceanic
12:57AM 52.0877 -32.9241 92° East 540 621 32,000  Level FlightAware Transoceanic
12:58AM 52.0831 -32.6800 92° East 540 621 32,000  Level FlightAware Transoceanic
12:59AM 52.0781 -32.4360 92° East 540 621 32,000  Level FlightAware Transoceanic
01:00AM 52.0726 -32.1921 92° East 540 621 32,000  Level FlightAware Transoceanic
01:01AM 52.0665 -31.9482 92° East 540 621 32,000  Level FlightAware Transoceanic
01:02AM 52.0600 -31.7044 93° East 540 621 32,000  Level FlightAware Transoceanic
01:03AM 52.0529 -31.4606 93° East 540 621 32,000  Level FlightAware Transoceanic
01:04AM 52.0453 -31.2169 93° East 540 621 32,000  Level FlightAware Transoceanic
01:05AM 52.0373 -30.9734 93° East 540 621 32,000  Level FlightAware Transoceanic
01:06AM 52.0287 -30.7299 93° East 540 621 32,000  Level FlightAware Transoceanic
01:07AM 52.0196 -30.4865 94° East 540 621 32,000  Level FlightAware Transoceanic
01:08AM 52.0101 -30.2432 94° East 540 621 32,000  Level FlightAware Transoceanic
01:09AM 52.0002 -30.0039 94° East  Level FlightAware Approximate
01:10AM 51.9895 -29.7647 94° East  Level FlightAware Approximate
01:11AM 52.0096 -29.7685 86° East  Level FlightAware Approximate
01:12AM 52.0190 -29.5291 86° East  Level FlightAware Approximate
01:12AM 52.0000 -30.0000 86° East 540 621 32,000  Level ETMS Enhanced Traffic Management System
01:13AM 52.0280 -29.2896 86° East  Level FlightAware Approximate
01:14AM 52.0364 -29.0517 87° East  Level FlightAware Approximate
01:15AM 52.0443 -28.8137 87° East  Level FlightAware Approximate
01:16AM 52.0518 -28.5757 87° East  Level FlightAware Approximate
01:17AM 52.0588 -28.3376 87° East  Level FlightAware Approximate
01:18AM 52.0726 -27.8079 88° East 540 621 32,000  Level FlightAware Transoceanic
01:19AM 52.0781 -27.5640 88° East 540 621 32,000  Level FlightAware Transoceanic
01:20AM 52.0831 -27.3200 88° East 540 621 32,000  Level FlightAware Transoceanic
01:21AM 52.0877 -27.0759 88° East 540 621 32,000  Level FlightAware Transoceanic
01:22AM 52.0917 -26.8318 89° East 540 621 32,000  Level FlightAware Transoceanic
01:23AM 52.0953 -26.5876 89° East 540 621 32,000  Level FlightAware Transoceanic
01:24AM 52.0983 -26.3434 89° East 540 621 32,000  Level FlightAware Transoceanic
01:25AM 52.1008 -26.0992 89° East 540 621 32,000  Level FlightAware Transoceanic
01:26AM 52.1028 -25.8550 89° East 540 621 32,000  Level FlightAware Transoceanic
01:27AM 52.1044 -25.6107 90° East 540 621 32,000  Level FlightAware Transoceanic
01:28AM 52.1054 -25.3664 90° East 540 621 32,000  Level FlightAware Transoceanic
01:29AM 52.1059 -25.1221 90° East 540 621 32,000  Level FlightAware Transoceanic
01:30AM 52.1059 -24.8779 90° East 540 621 32,000  Level FlightAware Transoceanic
01:31AM 52.1054 -24.6336 90° East 540 621 32,000  Level FlightAware Transoceanic
01:32AM 52.1044 -24.3893 90° East 540 621 32,000  Level FlightAware Transoceanic
01:33AM 52.1028 -24.1450 91° East 540 621 32,000  Level FlightAware Transoceanic
01:34AM 52.1008 -23.9008 91° East 540 621 32,000  Level FlightAware Transoceanic
01:35AM 52.0983 -23.6566 91° East 540 621 32,000  Level FlightAware Transoceanic
01:36AM 52.0953 -23.4124 91° East 540 621 32,000  Level FlightAware Transoceanic
01:37AM 52.0917 -23.1682 91° East 540 621 32,000  Level FlightAware Transoceanic
01:38AM 52.0877 -22.9241 92° East 540 621 32,000  Level FlightAware Transoceanic
01:39AM 52.0831 -22.6800 92° East 540 621 32,000  Level FlightAware Transoceanic
01:40AM 52.0781 -22.4360 92° East 540 621 32,000  Level FlightAware Transoceanic
01:41AM 52.0726 -22.1921 92° East 540 621 32,000  Level FlightAware Transoceanic
01:42AM 52.0665 -21.9482 92° East 540 621 32,000  Level FlightAware Transoceanic
01:43AM 52.0600 -21.7044 93° East 540 621 32,000  Level FlightAware Transoceanic
01:44AM 52.0529 -21.4606 93° East 540 621 32,000  Level FlightAware Transoceanic
01:45AM 52.0453 -21.2169 93° East 540 621 32,000  Level FlightAware Transoceanic
01:46AM 52.0373 -20.9734 93° East 540 621 32,000  Level FlightAware Transoceanic
01:47AM 52.0287 -20.7299 93° East 540 621 32,000  Level FlightAware Transoceanic
01:48AM 52.0196 -20.4865 94° East 540 621 32,000  Level FlightAware Transoceanic
01:49AM 52.0101 -20.2432 94° East 540 621 32,000  Level FlightAware Transoceanic
01:50AM 52.0002 -20.0056 94° East  Level FlightAware Approximate
01:51AM 51.9898 -19.7681 94° East  Level FlightAware Approximate
01:52AM 52.0084 -19.7735 86° East  Level FlightAware Approximate
01:53AM 52.0167 -19.5357 87° East  Level FlightAware Approximate
01:54AM 52.0245 -19.2974 87° East  Level FlightAware Approximate
01:55AM 52.0319 -19.0590 87° East  Level FlightAware Approximate
01:56AM 52.0388 -18.8206 87° East  Level FlightAware Approximate
01:57AM 52.0452 -18.5820 87° East  Level FlightAware Approximate
01:58AM 52.0511 -18.3434 88° East  Level FlightAware Approximate
01:59AM 52.0565 -18.1048 88° East  Level FlightAware Approximate
02:00AM 52.0615 -17.8661 88° East  Level FlightAware Approximate
02:01AM 52.0660 -17.6273 88° East  Level FlightAware Approximate
02:02AM 52.0700 -17.3885 88° East  Level FlightAware Approximate
02:03AM 52.0735 -17.1497 89° East  Level FlightAware Approximate
02:04AM 52.0765 -16.9108 89° East  Level FlightAware Approximate
02:05AM 52.0790 -16.6719 89° East  Level FlightAware Approximate
02:06AM 52.0811 -16.4330 89° East  Level FlightAware Approximate
02:07AM 52.0827 -16.1940 89° East  Level FlightAware Approximate
02:08AM 52.0838 -15.9551 89° East  Level FlightAware Approximate
02:09AM 52.0844 -15.7161 90° East  Level FlightAware Approximate
02:10AM 52.0845 -15.4771 90° East  Level FlightAware Approximate
02:11AM 52.0842 -15.2381 90° East  Level FlightAware Approximate
02:12AM 52.0833 -14.9992 90° East  Level FlightAware Approximate
02:13AM 52.0827 -14.7602 90° East  Level FlightAware Approximate
02:14AM 52.0816 -14.5212 90° East  Level FlightAware Approximate
02:15AM 52.0799 -14.2823 91° East  Level FlightAware Approximate
02:16AM 52.0779 -14.0434 91° East  Level FlightAware Approximate
02:17AM 52.0753 -13.8045 91° East  Level FlightAware Approximate
02:18AM 52.0722 -13.5656 91° East  Level FlightAware Approximate
02:19AM 52.0687 -13.3268 91° East  Level FlightAware Approximate
02:20AM 52.0647 -13.0880 91° East  Level FlightAware Approximate
02:21AM 52.0602 -12.8492 92° East  Level FlightAware Approximate
02:22AM 52.0552 -12.6105 92° East  Level FlightAware Approximate
02:23AM 52.0497 -12.3719 92° East  Level FlightAware Approximate
02:24AM 52.0437 -12.1333 92° East  Level FlightAware Approximate
02:25AM 52.0373 -11.8952 92° East  Level FlightAware Approximate
02:26AM 52.0304 -11.6572 93° East  Level FlightAware Approximate
02:27AM 52.0230 -11.4192 93° East  Level FlightAware Approximate
02:27AM 51.9780 -11.7530 93° East 516 594 33,000  Level FlightAware
02:27AM 51.9750 -11.6100 92° East 516 594 33,000  Level FlightAware
02:28AM 51.9720 -11.4560 92° East 515 593 33,000  Level FlightAware
02:28AM 51.9690 -11.3400 92° East 514 592 33,000  Level FlightAware
02:29AM 51.9650 -11.1530 92° East 511 588 33,000 120 Level FlightAware
02:30AM 51.9620 -11.0480 93° East 511 588 33,200 480 Climbing FlightAware
02:30AM 51.9590 -10.9020 92° East 512 589 33,600 1,440 Climbing FlightAware
02:31AM 51.9540 -10.7640 93° East 508 585 35,000 1,140 Climbing FlightAware
02:32AM 51.9500 -10.6060 92° East 510 587 35,000  Level FlightAware
02:32AM 51.9460 -10.4860 93° East 510 587 35,000  Level FlightAware
02:33AM 51.9420 -10.3490 93° East 510 587 35,000  Level FlightAware
02:33AM 51.9380 -10.2270 93° East 510 587 35,000  Level FlightAware
02:34AM 51.9330 -10.0760 93° East 510 587 35,000  Level FlightAware
02:35AM 51.9290 -9.9420 93° East 510 587 35,000  Level FlightAware
02:35AM 51.9240 -9.8080 93° East 510 587 35,000  Level FlightAware
02:36AM 51.9190 -9.6720 93° East 511 588 35,000  Level FlightAware
02:36AM 51.9140 -9.5430 94° East 512 589 35,000  Level FlightAware
02:37AM 51.9090 -9.4100 93° East 513 590 35,000  Level FlightAware
02:37AM 51.9040 -9.2750 93° East 510 587 35,000  Level FlightAware
02:38AM 51.8980 -9.1390 94° East 508 585 35,000  Level FlightAware
02:39AM 51.9059 -8.9687 94° East 492 566 35,000  Level FlightAware UK
02:39AM 51.8930 -9.0090 94° East 507 583 35,000  Level FlightAware
02:39AM 51.9009 -8.8551 94° East 492 566 35,000  Level FlightAware UK
02:39AM 51.8870 -8.8750 94° East 505 581 35,000  Level FlightAware
02:40AM 51.8810 -8.7450 94° East 503 579 35,000  Level FlightAware
02:40AM 51.8750 -8.6140 94° East 503 579 35,000  Level FlightAware
02:41AM 51.8690 -8.4820 94° East 504 580 35,000  Level FlightAware
02:42AM 51.8610 -8.3340 95° East 505 581 35,000  Level FlightAware
02:42AM 51.8702 -8.1798 95° East 490 564 35,000  Level FlightAware UK
02:42AM 51.8560 -8.2190 95° East 506 582 35,000  Level FlightAware
02:42AM 51.8637 -8.3808 274° West 505 581 35,000  Level FlightAware ADS-B
02:43AM 51.8427 -7.9688 95° East 507 583 35,000  Level FlightAware ADS-B
02:44AM 51.8364 -7.8482 95° East 507 583 35,000  Level FlightAware ADS-B
02:44AM 51.8300 -7.6900 94° East 516 594 35,000  Level FlightAware
02:45AM 51.8330 -7.5480 88° East 517 595 35,000  Level FlightAware
02:46AM 51.8512 -7.3823 88° East 490 564 35,000  Level FlightAware UK
02:46AM 51.8360 -7.4130 88° East 517 595 35,000  Level FlightAware
02:46AM 51.8390 -7.2770 88° East 516 594 35,000  Level FlightAware
02:47AM 51.8410 -7.1540 88° East 516 594 35,000  Level FlightAware
02:47AM 51.8409 -7.0985 90° East 512 589 35,000  Level FlightAware ADS-B (EIDW / DUB)
02:48AM 51.8371 -6.9787 93° East 509 586 35,000  Level FlightAware ADS-B (EIDW / DUB)
02:48AM 51.8476 -6.8084 93° East 492 566 35,000  Level FlightAware UK
02:48AM 51.8304 -6.8055 93° East 507 583 35,000  Level FlightAware ADS-B (EGBS)
02:49AM 51.8268 -6.7184 94° East 507 583 35,000  Level FlightAware ADS-B (EGBS)
02:50AM 51.8336 -6.4692 94° East 490 564 35,000  Level FlightAware UK
02:50AM 51.8163 -6.4742 94° East 506 582 35,000  Level FlightAware ADS-B (EGBS)
02:50AM 51.8100 -6.3510 95° East 506 582 35,000  Level FlightAware
02:51AM 51.8080 -6.2987 93° East 507 583 35,000  Level FlightAware ADS-B (EGBS)
02:51AM 51.8173 -6.1292 93° East 490 564 35,000  Level FlightAware UK
02:51AM 51.7997 -6.1183 93° East 508 585 35,000  Level FlightAware ADS-B (EGBS)
02:52AM 51.7883 -5.9417 96° East 506 582 35,000  Level FlightAware ADS-B (EGBS)
02:53AM 51.7953 -5.7906 96° East 488 562 35,000  Level FlightAware UK
02:53AM 51.7800 -5.8170 96° East 507 583 35,000  Level FlightAware
02:53AM 51.7765 -5.7657 96° East 509 586 35,000  Level FlightAware ADS-B (EGDX / DGX)
02:53AM 51.7691 -5.6532 96° East 510 587 35,000  Level FlightAware ADS-B (EGDX / DGX)
02:54AM 51.7615 -5.5301 96° East 512 589 35,000  Level FlightAware ADS-B (EGBS)
02:55AM 51.7555 -5.3974 94° East 512 589 35,000  Level FlightAware ADS-B (EGBS)
02:55AM 51.7639 -5.2218 94° East 490 564 35,000  Level FlightAware UK
02:55AM 51.7466 -5.2043 94° East 513 590 35,000  Level FlightAware ADS-B (EGBS)
02:55AM 51.7590 -5.4722 274° West 514 592 35,000  Level FlightAware ADS-B (EGDX / DGX)
02:56AM 51.7399 -5.0671 94° East 513 590 35,000  Level FlightAware ADS-B
02:57AM 51.7334 -4.9412 95° East 513 590 35,000  Level FlightAware ADS-B
02:57AM 51.7590 -5.4722 275° West 514 592 35,000  Level FlightAware ADS-B (EGDX / DGX)
02:57AM 51.7273 -4.7892 94° East 521 600 35,000  Level FlightAware ADS-B (EGBS)
02:58AM 51.7315 -4.6581 87° East 523 602 35,000  Level FlightAware ADS-B (EGBS)
02:59AM 51.7384 -4.4639 87° East 524 603 35,000  Level FlightAware ADS-B (EGBS)
02:59AM 51.7415 -4.3604 87° East 525 604 35,000  Level FlightAware ADS-B (EGDX / DGX)
03:00AM 51.7448 -4.2439 87° East 525 604 35,000  Level FlightAware ADS-B (EGBS)
03:00AM 51.7465 -4.1853 87° East 526 605 35,000  Level FlightAware ADS-B (EGDX / DGX)
03:00AM 51.7497 -4.0611 88° East 525 604 35,000  Level FlightAware ADS-B
03:01AM 51.7528 -3.9316 88° East 527 606 35,000  Level FlightAware ADS-B (EGDX / DGX)
03:01AM 51.7554 -3.7952 88° East 529 609 35,000  Level FlightAware ADS-B (EGDX / DGX)
03:02AM 51.7578 -3.6691 88° East 530 610 35,000  Level FlightAware ADS-B (EGDM)
03:02AM 51.7542 -3.8562 268° West 528 608 35,000  Level FlightAware ADS-B
03:03AM 51.7604 -3.4932 88° East 530 610 35,000  Level FlightAware ADS-B (EGBS)
03:03AM 51.7567 -3.3692 93° East 528 608 35,000  Level FlightAware ADS-B
03:03AM 51.7559 -3.3476 94° East 528 608 35,000  Level FlightAware ADS-B
03:04AM 51.7511 -3.2246 94° East 529 609 35,000  Level FlightAware ADS-B
03:04AM 51.7466 -3.1049 93° East 530 610 35,000  Level FlightAware ADS-B
03:04AM 51.7540 -3.3003 274° West 530 610 35,000  Level FlightAware ADS-B
03:05AM 51.7416 -2.9784 93° East 530 610 35,000  Level FlightAware ADS-B
03:05AM 51.7356 -2.8343 94° East 531 611 35,000  Level FlightAware ADS-B
03:06AM 51.7346 -2.8105 94° East 531 611 35,000  Level FlightAware ADS-B (EGDM)
03:06AM 51.7361 -2.8463 274° West 531 611 35,000  Level FlightAware ADS-B (EGDX / DGX)
03:06AM 51.7308 -2.7392 95° East 529 609 35,000  Level FlightAware ADS-B
03:06AM 51.7265 -2.6905 98° East 527 606 35,000  Level FlightAware ADS-B
03:06AM 51.7194 -2.6170 99° East 526 605 35,000  Level FlightAware ADS-B
03:07AM 51.7148 -2.5687 99° East 526 605 35,000  Level FlightAware ADS-B (EGBS)
03:07AM 51.7079 -2.4969 99° East 525 604 35,000  Level FlightAware ADS-B
03:07AM 51.7026 -2.4429 99° East 526 605 35,000  Level FlightAware ADS-B
03:07AM 51.6959 -2.3740 99° East 525 604 35,000  Level FlightAware ADS-B
03:08AM 51.6829 -2.2427 99° East 526 605 35,000  Level FlightAware ADS-B
03:08AM 51.6782 -2.1981 100° East 526 605 35,000  Level FlightAware ADS-B (EGDM)
03:09AM 51.6700 -2.1166 99° East 526 605 35,000  Level FlightAware ADS-B
03:09AM 51.6667 -2.0850 99° East 527 606 35,000  Level FlightAware ADS-B (EGDM)
03:09AM 51.6642 -2.0595 99° East 527 606 35,000  Level FlightAware ADS-B (EPRZ / RZE)
03:09AM 51.6576 -1.9967 100° East 526 605 35,000  Level FlightAware ADS-B
03:09AM 51.6492 -1.9172 100° East 527 606 35,000  Level FlightAware ADS-B
03:10AM 51.6451 -1.8801 100° East 527 606 35,000  Level FlightAware ADS-B
03:10AM 51.6362 -1.7979 100° East 527 606 35,000  Level FlightAware ADS-B
03:10AM 51.6319 -1.7593 100° East 528 608 35,000  Level FlightAware ADS-B
03:11AM 51.6204 -1.6574 100° East 529 609 35,000  Level FlightAware ADS-B
03:11AM 51.6051 -1.5250 101° East 529 609 35,000  Level FlightAware ADS-B
03:12AM 51.5908 -1.4069 101° East 529 609 35,000  Level FlightAware ADS-B
03:12AM 51.5904 -1.4028 99° East 528 608 35,000  Level FlightAware ADS-B
03:12AM 51.5848 -1.3590 101° East 527 606 35,000  Level FlightAware ADS-B (EPRZ / RZE)
03:12AM 51.5764 -1.2907 101° East 528 608 35,000  Level FlightAware ADS-B
03:12AM 51.5726 -1.2611 102° East 526 605 35,000  Level FlightAware ADS-B
03:12AM 51.5669 -1.2164 102° East 526 605 35,000  Level FlightAware ADS-B
03:13AM 51.5614 -1.1728 102° East 527 606 35,000  Level FlightAware ADS-B
03:13AM 51.5572 -1.1396 101° East 524 603 35,000  Level FlightAware ADS-B
03:13AM 51.5551 -1.1238 102° East 524 603 35,000  Level FlightAware ADS-B
03:13AM 51.5463 -1.0562 102° East 525 604 35,000  Level FlightAware ADS-B
03:13AM 51.5462 -1.0540 94° East 523 602 35,000  Level FlightAware ADS-B (EGDX / DGX)
03:13AM 51.5376 -0.9863 102° East 524 603 35,000  Level FlightAware ADS-B
03:14AM 51.5273 -0.8840 99° East 525 604 35,000  Level FlightAware ADS-B
03:14AM 51.5254 -0.8652 99° East 525 604 35,000  Level FlightAware ADS-B
03:14AM 51.5157 -0.7648 99° East 525 604 35,000  Level FlightAware ADS-B (EPRZ / RZE)
03:15AM 51.5136 -0.7448 99° East 525 604 35,000  Level FlightAware ADS-B
03:15AM 51.5039 -0.6477 99° East 523 602 35,000  Level FlightAware ADS-B (EPRZ / RZE)
03:15AM 51.5011 -0.6208 99° East 523 602 35,000  Level FlightAware ADS-B
03:15AM 51.4916 -0.5307 100° East 521 600 35,000  Level FlightAware ADS-B (EGHH / BOH)
03:16AM 51.4889 -0.5053 100° East 522 601 35,000  Level FlightAware ADS-B
03:16AM 51.4786 -0.4076 100° East 524 603 35,000  Level FlightAware ADS-B
03:16AM 51.4762 -0.3851 100° East 525 604 35,000  Level FlightAware ADS-B
03:17AM 51.4657 -0.2889 100° East 529 609 35,000  Level FlightAware ADS-B
03:17AM 51.4630 -0.2650 100° East 531 611 35,000  Level FlightAware ADS-B
03:17AM 51.4528 -0.1702 100° East 531 611 35,000  Level FlightAware ADS-B
03:17AM 51.4494 -0.1390 100° East 532 612 35,000  Level FlightAware ADS-B
03:18AM 51.4372 -0.0301 100° East 535 616 35,000  Level FlightAware ADS-B (EPRZ / RZE)
03:18AM 51.4364 -0.0218 98° East 535 616 35,000  Level FlightAware ADS-B
03:18AM 51.4237 0.0901 100° East 536 617 35,000  Level FlightAware ADS-B
03:18AM 51.4227 0.0993 100° East 535 616 35,000  Level FlightAware ADS-B
03:19AM 51.4091 0.2182 100° East 536 617 35,000  Level FlightAware ADS-B
03:19AM 51.4091 0.2182 178° South 536 617 35,000  Level FlightAware ADS-B
03:19AM 51.3943 0.3450 101° East 536 617 35,000  Level FlightAware ADS-B (EPRZ / RZE)
03:19AM 51.3874 0.4040 101° East 536 617 35,000  Level FlightAware ADS-B
03:20AM 51.3780 0.4821 101° East 536 617 35,000  Level FlightAware ADS-B
03:20AM 51.3720 0.5326 101° East 536 617 35,000  Level FlightAware ADS-B
03:20AM 51.3676 0.5697 101° East 535 616 35,000  Level FlightAware ADS-B (EGHH / BOH)
03:21AM 51.3581 0.6496 101° East 535 616 35,000  Level FlightAware ADS-B
03:21AM 51.3474 0.7382 101° East 535 616 35,000  Level FlightAware ADS-B (EGMD / LYX)
03:21AM 51.3435 0.7705 101° East 535 616 35,000  Level FlightAware ADS-B
03:21AM 51.3330 0.8561 101° East 535 616 35,000  Level FlightAware ADS-B (EGMD / LYX)
03:22AM 51.3285 0.8939 101° East 535 616 35,000  Level FlightAware ADS-B
03:22AM 51.3190 0.9721 101° East 534 615 35,000  Level FlightAware ADS-B (EGMD / LYX)
03:22AM 51.3117 1.0322 101° East 534 615 35,000  Level FlightAware ADS-B
03:22AM 51.3031 1.1024 101° East 535 616 35,000  Level FlightAware ADS-B
03:23AM 51.2970 1.1528 101° East 535 616 35,000  Level FlightAware ADS-B
03:23AM 51.2888 1.2178 101° East 536 617 35,000  Level FlightAware ADS-B
03:24AM 51.2712 1.3590 101° East 536 617 35,000  Level FlightAware ADS-B (EGMD / LYX)
03:24AM 51.2673 1.3920 101° East 538 619 35,000  Level FlightAware ADS-B
03:24AM 51.2518 1.5144 101° East 537 618 35,000  Level FlightAware ADS-B (EGMD / LYX)
03:25AM 51.2360 1.6315 102° East 538 619 35,000  Level FlightAware ADS-B
03:25AM 51.2128 1.7236 112° Southeast 535 616 35,000  Level FlightAware ADS-B (EGMD / LYX)
03:26AM 51.1848 1.8216 114° Southeast 533 613 35,000  Level FlightAware ADS-B
03:26AM 51.1765 1.8501 115° Southeast 534 615 35,000  Level FlightAware ADS-B
03:26AM 51.1510 1.9397 114° Southeast 533 613 35,000  Level FlightAware ADS-B
03:27AM 51.1181 2.0502 115° Southeast 532 612 35,000  Level FlightAware ADS-B
03:27AM 51.0843 2.1622 116° Southeast 532 612 35,000  Level FlightAware ADS-B
03:27AM 51.0740 2.1970 115° Southeast 532 612 35,000  Level FlightAware ADS-B
03:28AM 51.0443 2.2953 116° Southeast 533 613 35,000  Level FlightAware ADS-B
03:29AM 50.9980 2.4510 115° Southeast 532 612 35,000  Level FlightAware
03:29AM 50.9610 2.5740 115° Southeast 532 612 35,000  Level FlightAware
03:30AM 50.9147 2.7275 115° Southeast 490 564 35,000  Level FlightAware UK
03:30AM 50.9260 2.6890 115° Southeast 534 615 35,000  Level FlightAware
03:30AM 50.8880 2.8180 115° Southeast 535 616 35,000  Level FlightAware
03:31AM 50.8530 2.9340 116° Southeast 535 616 35,000  Level FlightAware
03:31AM 50.8160 3.0550 116° Southeast 537 618 35,000  Level FlightAware
03:32AM 50.7770 3.1820 116° Southeast 538 619 35,000  Level FlightAware
03:33AM 50.7400 3.3020 116° Southeast 539 620 35,000  Level FlightAware
03:33AM 50.7020 3.4210 117° Southeast 539 620 35,000  Level FlightAware
03:34AM 50.6640 3.5410 117° Southeast 540 621 35,000  Level FlightAware
03:34AM 50.6250 3.6610 117° Southeast 539 620 35,000  Level FlightAware
03:35AM 50.5830 3.7920 117° Southeast 536 617 35,000  Level FlightAware
03:36AM 50.5330 3.9430 117° Southeast 533 613 35,000  Level FlightAware
03:36AM 50.4950 4.0590 117° Southeast 530 610 35,000  Level FlightAware
03:37AM 50.4520 4.1920 117° Southeast 528 608 35,000  Level FlightAware
03:37AM 50.4150 4.3020 118° Southeast 526 605 35,000  Level FlightAware
03:38AM 50.3730 4.4280 118° Southeast 525 604 35,000  Level FlightAware
03:39AM 50.3330 4.5480 118° Southeast 525 604 35,000  Level FlightAware
03:39AM 50.2960 4.6550 118° Southeast 524 603 35,000  Level FlightAware
03:40AM 50.2560 4.7750 117° Southeast 522 601 35,000  Level FlightAware
03:40AM 50.2110 4.9080 118° Southeast 521 600 35,000  Level FlightAware
03:41AM 50.1650 5.0430 118° Southeast 518 596 35,000  Level FlightAware
03:42AM 50.1290 5.1480 118° Southeast 517 595 35,000  Level FlightAware
03:42AM 50.0900 5.2600 118° Southeast 516 594 35,000  Level FlightAware
03:43AM 50.0510 5.3760 118° Southeast 514 592 35,000  Level FlightAware
03:43AM 50.0100 5.4970 118° Southeast 514 592 35,000  Level FlightAware
03:44AM 49.9730 5.6030 118° Southeast 514 592 35,000  Level FlightAware
03:45AM 49.9320 5.7200 119° Southeast 515 593 35,000  Level FlightAware
03:45AM 49.8920 5.8350 118° Southeast 517 595 35,000  Level FlightAware
03:46AM 49.8510 5.9540 118° Southeast 518 596 35,000  Level FlightAware
03:46AM 49.8130 6.0610 119° Southeast 521 600 35,000  Level FlightAware
03:47AM 49.7730 6.1730 119° Southeast 523 602 35,000  Level FlightAware
03:47AM 49.7320 6.2880 119° Southeast 523 602 35,000  Level FlightAware
03:48AM 49.6920 6.4000 119° Southeast 523 602 35,000  Level FlightAware
03:49AM 49.6480 6.5230 119° Southeast 522 601 35,000  Level FlightAware
03:49AM 49.6050 6.6420 119° Southeast 521 600 35,000  Level FlightAware
03:50AM 49.5680 6.7430 119° Southeast 521 600 35,000  Level FlightAware
03:50AM 49.5250 6.8620 119° Southeast 521 600 35,000  Level FlightAware
03:51AM 49.4820 6.9790 119° Southeast 522 601 35,000  Level FlightAware
03:52AM 49.4370 7.1020 119° Southeast 523 602 35,000  Level FlightAware
03:52AM 49.3870 7.2370 120° Southeast 523 602 35,000  Level FlightAware
03:53AM 49.3450 7.3520 119° Southeast 524 603 35,000  Level FlightAware
03:54AM 49.3040 7.4620 120° Southeast 525 604 35,000  Level FlightAware
03:54AM 49.2600 7.5780 120° Southeast 521 600 35,000  Level FlightAware
03:55AM 49.2190 7.6860 120° Southeast 522 601 35,000  Level FlightAware
03:55AM 49.1750 7.8000 121° Southeast 523 602 35,000  Level FlightAware
03:56AM 49.1320 7.9130 120° Southeast 523 602 35,000  Level FlightAware
03:56AM 49.0890 8.0250 120° Southeast 524 603 35,000  Level FlightAware
03:57AM 49.0450 8.1360 121° Southeast 525 604 35,000  Level FlightAware
03:58AM 49.0020 8.2480 120° Southeast 531 611 35,000  Level FlightAware
03:58AM 48.9580 8.3600 121° Southeast 532 612 35,000  Level FlightAware
03:59AM 48.9130 8.4750 121° Southeast 534 615 35,000  Level FlightAware
03:59AM 48.8690 8.5870 121° Southeast 535 616 35,000  Level FlightAware
04:00AM 48.8250 8.6960 121° Southeast 537 618 35,000  Level FlightAware
04:01AM 48.7670 8.8410 121° Southeast 539 620 35,000  Level FlightAware
04:01AM 48.7220 8.9530 121° Southeast 540 621 35,000  Level FlightAware
04:02AM 48.6770 9.0650 121° Southeast 541 623 35,000  Level FlightAware
04:02AM 48.6290 9.1820 122° Southeast 542 624 35,000  Level FlightAware
04:03AM 48.5830 9.2930 122° Southeast 543 625 35,000  Level FlightAware
04:04AM 48.5340 9.4110 122° Southeast 545 627 35,000  Level FlightAware
04:04AM 48.4830 9.5230 124° Southeast 546 628 35,000  Level FlightAware
04:05AM 48.4430 9.5740 140° Southeast 545 627 35,000  Level FlightAware
04:05AM 48.3730 9.6350 150° Southeast 544 626 35,000  Level FlightAware
04:06AM 48.2950 9.6970 152° Southeast 544 626 35,000  Level FlightAware
04:06AM 48.2120 9.7590 154° Southeast 545 627 35,000  Level FlightAware
04:07AM 48.1350 9.8200 152° Southeast 545 627 35,000  Level FlightAware
04:07AM 48.0630 9.8780 152° Southeast 544 626 35,000  Level FlightAware
04:08AM 47.9800 9.9450 152° Southeast 545 627 35,000  Level FlightAware
04:09AM 47.9060 10.0040 152° Southeast 544 626 35,000  Level FlightAware
04:09AM 47.8280 10.0670 152° Southeast 544 626 35,000  Level FlightAware
04:10AM 47.7500 10.1290 152° Southeast 544 626 35,000  Level FlightAware
04:10AM 47.6730 10.1910 152° Southeast 543 625 35,000  Level FlightAware
04:11AM 47.6450 10.2140 151° Southeast 543 625 35,000  Level FlightAware
04:11AM 47.5310 10.3050 152° Southeast 544 626 35,000  Level FlightAware
04:12AM 47.4540 10.3660 152° Southeast 544 626 35,000  Level FlightAware
04:13AM 47.3680 10.4340 152° Southeast 544 626 35,000  Level FlightAware
04:13AM 47.2870 10.4980 152° Southeast 545 627 35,000  Level FlightAware
04:14AM 47.2140 10.5560 152° Southeast 545 627 35,000  Level FlightAware
04:14AM 47.1370 10.6160 152° Southeast 545 627 35,000  Level FlightAware
04:15AM 47.0530 10.6800 153° Southeast 545 627 35,000  Level FlightAware
04:16AM 46.9840 10.7270 155° Southeast 543 625 35,000  Level FlightAware
04:16AM 46.8970 10.7780 158° South 541 623 35,000  Level FlightAware
04:17AM 46.8180 10.8230 159° South 541 623 35,000  Level FlightAware
04:17AM 46.7530 10.8770 150° Southeast 552 635 35,000  Level FlightAware
04:18AM 46.6960 10.9510 138° Southeast 556 640 35,000  Level FlightAware
04:18AM 46.6350 11.0480 132° Southeast 557 641 35,000  Level FlightAware
04:19AM 46.5800 11.1380 132° Southeast 557 641 35,000  Level FlightAware
04:19AM 46.5260 11.2260 132° Southeast 558 642 35,000  Level FlightAware
04:20AM 46.4510 11.3470 132° Southeast 558 642 35,000  Level FlightAware
04:21AM 46.3920 11.4460 131° Southeast 559 643 35,000  Level FlightAware
04:21AM 46.3300 11.5540 130° Southeast 561 646 35,000  Level FlightAware
04:22AM 46.2680 11.6590 130° Southeast 563 648 35,000  Level FlightAware
04:22AM 46.2170 11.7460 130° Southeast 563 648 35,000  Level FlightAware
04:23AM 46.1560 11.8480 131° Southeast 565 650 35,000  Level FlightAware
04:24AM 46.1060 11.9310 131° Southeast 566 651 35,000  Level FlightAware
04:24AM 46.0410 12.0400 131° Southeast 566 651 35,000  Level FlightAware
04:25AM 45.9730 12.1520 131° Southeast 565 650 35,000  Level FlightAware
04:25AM 45.9120 12.2520 131° Southeast 565 650 35,000  Level FlightAware
04:26AM 45.8550 12.3470 131° Southeast 567 652 35,000  Level FlightAware
04:27AM 45.7910 12.4520 131° Southeast 566 651 35,000  Level FlightAware
04:27AM 45.7320 12.5480 131° Southeast 567 652 35,000  Level FlightAware
04:28AM 45.6800 12.6340 131° Southeast 568 654 35,000  Level FlightAware
04:28AM 45.6170 12.7540 127° Southeast 564 649 35,000  Level FlightAware
04:29AM 45.5670 12.8540 126° Southeast 569 655 35,000  Level FlightAware
04:29AM 45.5080 12.9680 126° Southeast 570 656 35,000  Level FlightAware
04:30AM 45.4640 13.0520 127° Southeast 570 656 35,000  Level FlightAware
04:31AM 45.4090 13.1570 127° Southeast 569 655 35,000  Level FlightAware
04:31AM 45.3450 13.2780 127° Southeast 567 652 35,000  Level FlightAware
04:32AM 45.2970 13.3680 127° Southeast 562 647 35,000  Level FlightAware
04:32AM 45.2360 13.4820 127° Southeast 567 652 35,000  Level FlightAware
04:33AM 45.1770 13.5920 127° Southeast 563 648 35,000  Level FlightAware
04:34AM 45.1150 13.7090 127° Southeast 565 650 35,000  Level FlightAware
04:34AM 45.0570 13.8170 127° Southeast 566 651 35,000  Level FlightAware
04:35AM 45.0120 13.9010 127° Southeast 572 658 35,000  Level FlightAware
04:35AM 44.9550 14.0120 126° Southeast 573 659 35,000  Level FlightAware
04:36AM 44.9070 14.1070 125° Southeast 574 661 35,000  Level FlightAware
04:37AM 44.8390 14.2380 126° Southeast 574 661 35,000  Level FlightAware
04:37AM 44.7810 14.3510 126° Southeast 575 662 35,000  Level FlightAware
04:38AM 44.7300 14.4470 127° Southeast 575 662 35,000  Level FlightAware
04:38AM 44.6710 14.5580 127° Southeast 572 658 35,000  Level FlightAware
04:39AM 44.6150 14.6640 127° Southeast 572 658 35,000  Level FlightAware
04:39AM 44.5630 14.7610 127° Southeast 574 661 35,000  Level FlightAware
04:40AM 44.5040 14.8710 127° Southeast 573 659 35,000  Level FlightAware
04:41AM 44.4340 15.0020 127° Southeast 574 661 35,000  Level FlightAware
04:41AM 44.3700 15.1190 127° Southeast 574 661 35,000  Level FlightAware
04:42AM 44.2930 15.2610 127° Southeast 574 661 35,000  Level FlightAware
04:43AM 44.2280 15.3810 127° Southeast 580 667 35,000  Level FlightAware
04:43AM 44.1720 15.4830 127° Southeast 582 670 35,000  Level FlightAware
04:44AM 44.1250 15.5680 128° Southeast 582 670 35,000  Level FlightAware
04:45AM 44.0690 15.6710 127° Southeast 583 671 35,000  Level FlightAware
04:45AM 44.0060 15.7840 128° Southeast 585 673 35,000  Level FlightAware
04:46AM 43.9490 15.8860 128° Southeast 581 669 35,000  Level FlightAware
04:46AM 43.8820 16.0050 128° Southeast 581 669 35,000  Level FlightAware
04:47AM 43.8240 16.1090 128° Southeast 581 669 35,000  Level FlightAware
04:47AM 43.7740 16.1970 128° Southeast 581 669 35,000  Level FlightAware
04:48AM 43.7170 16.2980 128° Southeast 582 670 35,000  Level FlightAware
04:49AM 43.6500 16.4160 128° Southeast 582 670 35,000  Level FlightAware
04:49AM 43.5890 16.5220 128° Southeast 579 666 35,000  Level FlightAware
04:50AM 43.5400 16.6100 128° Southeast 579 666 35,000  Level FlightAware
04:50AM 43.4730 16.7270 128° Southeast 577 664 35,000  Level FlightAware
04:51AM 43.4150 16.8290 128° Southeast 579 666 35,000  Level FlightAware
04:52AM 43.3650 16.9150 129° Southeast 580 667 35,000  Level FlightAware
04:52AM 43.2960 17.0340 129° Southeast 582 670 35,000  Level FlightAware
04:53AM 43.2450 17.1210 129° Southeast 581 669 35,000  Level FlightAware
04:53AM 43.1860 17.2220 129° Southeast 580 667 35,000  Level FlightAware
04:54AM 43.1200 17.3350 129° Southeast 588 677 35,000  Level FlightAware
04:55AM 43.0610 17.4360 129° Southeast 589 678 35,000  Level FlightAware
04:55AM 43.0010 17.5380 129° Southeast 589 678 35,000  Level FlightAware
04:56AM 42.9510 17.6230 129° Southeast 588 677 35,000  Level FlightAware
04:56AM 42.8840 17.7380 128° Southeast 589 678 35,000  Level FlightAware
04:57AM 42.8210 17.8440 129° Southeast 590 679 35,000  Level FlightAware
04:57AM 42.7580 17.9490 129° Southeast 592 681 35,000  Level FlightAware
04:58AM 42.7030 18.0400 129° Southeast 589 678 35,000  Level FlightAware
04:59AM 42.6430 18.1410 129° Southeast 590 679 35,000  Level FlightAware
04:59AM 42.5880 18.2290 130° Southeast 588 677 35,000  Level FlightAware
05:00AM 42.5110 18.3340 135° Southeast 587 676 35,000  Level FlightAware
05:00AM 42.4320 18.4390 136° Southeast 587 676 35,000  Level FlightAware
05:01AM 42.3630 18.5310 135° Southeast 592 681 35,000  Level FlightAware
05:02AM 42.2860 18.6350 135° Southeast 593 682 35,000  Level FlightAware
05:02AM 42.2210 18.7220 135° Southeast 593 682 35,000  Level FlightAware
05:03AM 42.1520 18.8150 135° Southeast 593 682 35,000  Level FlightAware
05:03AM 42.0890 18.9000 135° Southeast 592 681 35,000  Level FlightAware
05:04AM 42.0300 18.9780 136° Southeast 593 682 35,000  Level FlightAware
05:05AM 41.9440 19.0930 135° Southeast 593 682 35,000  Level FlightAware
05:05AM 41.8790 19.1800 135° Southeast 593 682 35,000  Level FlightAware
05:06AM 41.8000 19.2830 136° Southeast 593 682 35,000  Level FlightAware
05:07AM 41.7180 19.3790 139° Southeast 592 681 35,000  Level FlightAware
05:07AM 41.6520 19.4540 140° Southeast 592 681 35,000  Level FlightAware
05:08AM 41.5740 19.5410 140° Southeast 592 681 35,000  Level FlightAware
05:08AM 41.5070 19.6160 140° Southeast 592 681 35,000  Level FlightAware
05:09AM 41.4330 19.7010 139° Southeast 593 682 35,000  Level FlightAware
05:09AM 41.3650 19.7890 136° Southeast 595 685 35,000  Level FlightAware
05:10AM 41.2920 19.8870 135° Southeast 594 684 35,000  Level FlightAware
05:11AM 41.2300 19.9700 135° Southeast 594 684 35,000  Level FlightAware
05:11AM 41.1560 20.0690 135° Southeast 593 682 35,000  Level FlightAware
05:12AM 41.0970 20.1480 135° Southeast 594 684 35,000  Level FlightAware
05:12AM 41.0290 20.2370 135° Southeast 594 684 35,000  Level FlightAware
05:13AM 40.9550 20.3340 135° Southeast 596 686 35,000  Level FlightAware
05:13AM 40.8940 20.4140 135° Southeast 595 685 35,000  Level FlightAware
05:14AM 40.8210 20.5090 135° Southeast 594 684 35,000  Level FlightAware
05:15AM 40.7540 20.5960 135° Southeast 594 684 35,000  Level FlightAware
05:15AM 40.6850 20.6850 136° Southeast 593 682 35,000  Level FlightAware
05:16AM 40.6180 20.7710 136° Southeast 594 684 35,000  Level FlightAware
05:16AM 40.5450 20.8630 136° Southeast 594 684 35,000  Level FlightAware
05:17AM 40.4740 20.9510 137° Southeast 594 684 35,000  Level FlightAware
05:18AM 40.4010 21.0350 139° Southeast 593 682 35,000  Level FlightAware
05:18AM 40.3310 21.1140 139° Southeast 593 682 35,000  Level FlightAware
05:19AM 40.2570 21.1990 139° Southeast 593 682 35,000  Level FlightAware
05:19AM 40.1830 21.2830 139° Southeast 591 680 35,000  Level FlightAware
05:20AM 40.1170 21.3580 139° Southeast 590 679 35,000  Level FlightAware
05:20AM 40.0390 21.4460 139° Southeast 589 678 35,000  Level FlightAware
05:21AM 39.9650 21.5290 139° Southeast 588 677 35,000  Level FlightAware
05:22AM 39.8990 21.6040 139° Southeast 587 676 35,000  Level FlightAware
05:22AM 39.8210 21.6910 139° Southeast 586 674 35,000  Level FlightAware
05:23AM 39.7470 21.7740 139° Southeast 586 674 35,000  Level FlightAware
05:23AM 39.6820 21.8460 140° Southeast 584 672 35,000  Level FlightAware
05:24AM 39.6080 21.9290 139° Southeast 585 673 35,000  Level FlightAware
05:25AM 39.5330 22.0120 140° Southeast 584 672 35,000  Level FlightAware
05:25AM 39.4600 22.0930 139° Southeast 584 672 35,000  Level FlightAware
05:26AM 39.3930 22.1670 140° Southeast 583 671 35,000  Level FlightAware
05:26AM 39.3190 22.2490 139° Southeast 583 671 35,000  Level FlightAware
05:27AM 39.2470 22.3280 140° Southeast 583 671 35,000  Level FlightAware
05:27AM 39.1790 22.4020 140° Southeast 583 671 35,000  Level FlightAware
05:28AM 39.1050 22.4820 140° Southeast 583 671 35,000  Level FlightAware
05:29AM 39.0330 22.5600 140° Southeast 583 671 35,000  Level FlightAware
05:29AM 38.9570 22.6420 140° Southeast 582 670 35,000  Level FlightAware
05:30AM 38.8790 22.7260 140° Southeast 580 667 35,000  Level FlightAware
05:30AM 38.8060 22.8040 140° Southeast 580 667 35,000  Level FlightAware
05:31AM 38.7260 22.8890 140° Southeast 580 667 35,000  Level FlightAware
05:32AM 38.6620 22.9560 141° Southeast 581 669 35,000  Level FlightAware
05:32AM 38.5860 23.0370 140° Southeast 581 669 35,000  Level FlightAware
05:33AM 38.5130 23.1150 140° Southeast 582 670 35,000  Level FlightAware
05:33AM 38.4440 23.1880 140° Southeast 583 671 35,000  Level FlightAware
05:34AM 38.3660 23.2710 140° Southeast 582 670 35,000  Level FlightAware
05:35AM 38.2950 23.3460 140° Southeast 580 667 35,000  Level FlightAware
05:35AM 38.2200 23.4260 140° Southeast 580 667 35,000  Level FlightAware
05:36AM 38.1500 23.4980 141° Southeast 580 667 35,000  Level FlightAware
05:36AM 38.0780 23.5730 141° Southeast 580 667 35,000  Level FlightAware
05:37AM 38.0060 23.6470 141° Southeast 582 670 35,000  Level FlightAware
05:37AM 37.9280 23.7290 140° Southeast 585 673 35,000  Level FlightAware
05:38AM 37.8660 23.8070 135° Southeast 590 679 35,000  Level FlightAware
05:39AM 37.8030 23.9010 130° Southeast 592 681 35,000  Level FlightAware
05:39AM 37.7390 23.9970 130° Southeast 592 681 35,000  Level FlightAware
05:40AM 37.6730 24.0970 130° Southeast 592 681 35,000  Level FlightAware
05:40AM 37.6200 24.1760 130° Southeast 592 681 35,000  Level FlightAware
05:41AM 37.5640 24.2640 129° Southeast 596 686 35,000  Level FlightAware
05:42AM 37.5010 24.3820 124° Southeast 596 686 35,000  Level FlightAware
05:42AM 37.4510 24.4820 122° Southeast 595 685 35,000  Level FlightAware
05:43AM 37.3990 24.5860 122° Southeast 596 686 35,000  Level FlightAware
05:43AM 37.3530 24.6780 122° Southeast 596 686 35,000  Level FlightAware
05:44AM 37.2970 24.7910 122° Southeast 596 686 35,000  Level FlightAware
05:44AM 37.2460 24.8920 122° Southeast 596 686 35,000  Level FlightAware
05:45AM 37.1950 24.9920 123° Southeast 596 686 35,000  Level FlightAware
05:46AM 37.1450 25.0920 122° Southeast 597 687 35,000  Level FlightAware
05:46AM 37.0910 25.1980 123° Southeast 598 688 35,000  Level FlightAware
05:47AM 37.0390 25.3000 123° Southeast 598 688 35,000  Level FlightAware
05:47AM 36.9890 25.3970 123° Southeast 597 687 35,000  Level FlightAware
05:48AM 36.9400 25.4920 123° Southeast 597 687 35,000  Level FlightAware
05:49AM 36.8800 25.6080 123° Southeast 597 687 35,000  Level FlightAware
05:49AM 36.8300 25.7050 123° Southeast 596 686 35,000  Level FlightAware
05:50AM 36.7860 25.7890 123° Southeast 596 686 35,000  Level FlightAware
05:50AM 36.7230 25.9110 123° Southeast 596 686 35,000  Level FlightAware
05:51AM 36.6700 26.0130 123° Southeast 596 686 35,000  Level FlightAware
05:51AM 36.6200 26.1090 123° Southeast 595 685 35,000  Level FlightAware
05:52AM 36.5670 26.2160 122° Southeast 596 686 35,000  Level FlightAware
05:53AM 36.5220 26.3240 117° Southeast 597 687 35,000  Level FlightAware
05:53AM 36.4840 26.4230 115° Southeast 599 689 35,000  Level FlightAware
05:54AM 36.4410 26.5330 116° Southeast 596 686 35,000  Level FlightAware
05:54AM 36.3970 26.6450 116° Southeast 597 687 35,000  Level FlightAware
05:55AM 36.3550 26.7510 116° Southeast 594 684 35,000  Level FlightAware
05:56AM 36.3150 26.8500 117° Southeast 593 682 35,000  Level FlightAware
05:56AM 36.2750 26.9490 117° Southeast 589 678 35,000  Level FlightAware
05:57AM 36.2230 27.0750 117° Southeast 592 681 35,000  Level FlightAware
05:57AM 36.1730 27.1950 117° Southeast 592 681 35,000  Level FlightAware
05:58AM 36.1330 27.2900 118° Southeast 592 681 35,000  Level FlightAware
05:59AM 36.0870 27.4050 116° Southeast 591 680 35,000  Level FlightAware
05:59AM 36.0430 27.5110 117° Southeast 590 679 35,000  Level FlightAware
06:00AM 36.0000 27.6150 117° Southeast 589 678 35,000  Level FlightAware
06:00AM 35.9500 27.7220 120° Southeast 588 677 35,000  Level FlightAware
06:01AM 35.8950 27.8200 125° Southeast 588 677 35,000  Level FlightAware
06:01AM 35.8440 27.9090 125° Southeast 587 676 35,000  Level FlightAware
06:02AM 35.7880 28.0060 125° Southeast 586 674 35,000  Level FlightAware
06:03AM 35.7310 28.1050 125° Southeast 585 673 35,000  Level FlightAware
06:03AM 35.6820 28.1890 126° Southeast 584 672 35,000  Level FlightAware
06:04AM 35.6300 28.2790 125° Southeast 482 555 35,000  Level FlightAware
06:04AM 35.5650 28.3900 126° Southeast 581 669 35,000  Level FlightAware
06:05AM 35.5150 28.4750 126° Southeast 580 667 35,000  Level FlightAware
06:06AM 35.4590 28.5710 126° Southeast 580 667 35,000  Level FlightAware
06:06AM 35.4010 28.6690 126° Southeast 578 665 35,000  Level FlightAware
06:07AM 35.3450 28.7640 126° Southeast 577 664 35,000  Level FlightAware
06:07AM 35.2970 28.8460 126° Southeast 578 665 35,000  Level FlightAware
06:08AM 35.2390 28.9430 126° Southeast 576 663 35,000  Level FlightAware
06:09AM 35.1820 29.0370 127° Southeast 575 662 35,000  Level FlightAware
06:09AM 35.1250 29.1320 126° Southeast 575 662 35,000  Level FlightAware
06:10AM 35.0790 29.2090 126° Southeast 575 662 35,000  Level FlightAware
06:10AM 35.0150 29.3150 126° Southeast 574 661 35,000  Level FlightAware
06:11AM 34.9430 29.4360 126° Southeast 574 661 35,000  Level FlightAware
06:12AM 34.8950 29.5160 126° Southeast 574 661 35,000  Level FlightAware
06:12AM 34.8140 29.6480 127° Southeast 573 659 35,000  Level FlightAware
06:13AM 34.7620 29.7330 127° Southeast 574 661 35,000  Level FlightAware
06:14AM 34.7040 29.8280 127° Southeast 573 659 35,000  Level FlightAware
06:14AM 34.6580 29.9040 126° Southeast 573 659 35,000  Level FlightAware
06:15AM 34.6110 29.9840 126° Southeast 573 659 35,000  Level FlightAware
06:15AM 34.5620 30.0950 118° Southeast 35,000  Level FlightAware
06:16AM 34.5150 30.1980 119° Southeast 600 690 35,000  Level FlightAware
06:16AM 34.4680 30.2990 119° Southeast 573 659 35,000  Level FlightAware
06:17AM 34.4240 30.3890 121° Southeast 572 658 35,000  Level FlightAware
06:18AM 34.3740 30.4910 121° Southeast 571 657 35,000  Level FlightAware
06:18AM 34.3270 30.5860 121° Southeast 570 656 35,000  Level FlightAware
06:19AM 34.2810 30.6810 120° Southeast 568 654 35,000  Level FlightAware
06:19AM 34.2330 30.7790 121° Southeast 567 652 35,000  Level FlightAware
06:20AM 34.1840 30.8770 121° Southeast 561 646 35,000  Level FlightAware
06:21AM 34.1390 30.9710 120° Southeast 560 644 35,000  Level FlightAware
06:21AM 34.0850 31.0820 120° Southeast 556 640 35,000  Level FlightAware
06:22AM 34.0400 31.1740 121° Southeast 554 638 35,000  Level FlightAware
06:22AM 33.9930 31.2690 121° Southeast 553 636 35,000  Level FlightAware
06:23AM 33.9480 31.3610 121° Southeast 551 634 35,000  Level FlightAware
06:24AM 33.9020 31.4540 121° Southeast 550 633 35,000  Level FlightAware
06:24AM 33.8620 31.5360 120° Southeast 548 631 35,000  Level FlightAware
06:25AM 33.8020 31.6560 121° Southeast 546 628 35,000  Level FlightAware
06:25AM 33.7570 31.7470 121° Southeast 546 628 35,000  Level FlightAware
06:26AM 33.7100 31.8400 121° Southeast 545 627 35,000 -300 Level FlightAware
06:27AM 33.6670 31.9270 121° Southeast 538 619 34,700 -780 Descending FlightAware
06:27AM 33.6190 32.0210 121° Southeast 526 605 34,100 -1,080 Descending FlightAware
06:28AM 33.5760 32.1060 121° Southeast 514 592 33,500 -960 Descending FlightAware
06:28AM 33.5320 32.1930 121° Southeast 504 580 33,000 -420 Descending FlightAware
06:29AM 33.4850 32.2850 121° Southeast 513 590 33,000  Level FlightAware
06:30AM 33.4410 32.3710 121° Southeast 522 601 33,000  Level FlightAware
06:30AM 33.3940 32.4610 122° Southeast 523 602 33,000  Level FlightAware
06:31AM 33.3410 32.5640 122° Southeast 524 603 33,000 -360 Level FlightAware
06:31AM 33.2970 32.6500 121° Southeast 511 588 32,600 -780 Descending FlightAware
06:32AM 33.2540 32.7330 122° Southeast 500 575 32,100 -1,020 Descending FlightAware
06:33AM 33.2190 32.7990 122° Southeast 495 570 31,500 -1,380 Descending FlightAware
06:33AM 33.1650 32.9020 122° Southeast 490 564 30,500 -1,320 Descending FlightAware
06:34AM 33.1220 32.9840 122° Southeast 487 560 29,800 -1,440 Descending FlightAware
06:34AM 33.0830 33.0600 121° Southeast 478 550 28,800 -2,040 Descending FlightAware
06:35AM 33.0360 33.1480 122° Southeast 470 541 27,300 -1,200 Descending FlightAware
06:36AM 32.9990 33.2190 122° Southeast 470 541 27,300 -1,200 Level FlightAware
06:36AM 32.9460 33.3190 122° Southeast 453 521 25,700 -3,180 Descending FlightAware
06:37AM 32.9070 33.3940 122° Southeast 434 499 23,300 -3,540 Descending FlightAware
06:37AM 32.8900 33.4470 111° Southeast 433 498 22,500 -1,920 Descending FlightAware
06:38AM 32.8850 33.5010 96° East 427 491 21,800 -1,740 Descending FlightAware
06:38AM 32.8820 33.5760 93° East 417 480 20,900 -1,680 Descending FlightAware
06:39AM 32.8780 33.6580 93° East 405 466 20,000 -1,680 Descending FlightAware
06:40AM 32.8750 33.7420 92° East 406 467 18,900 -1,740 Descending FlightAware
06:40AM 32.8720 33.8240 92° East 409 471 17,900 -1,620 Descending FlightAware
06:41AM 32.8710 33.8920 91° East 400 460 17,100 -1,560 Descending FlightAware
06:41AM 32.8690 33.9670 92° East 389 448 16,200 -1,500 Descending FlightAware
06:42AM 32.8660 34.0310 93° East 378 435 15,500 -1,560 Descending FlightAware
06:42AM 32.8590 34.0560 108° East 371 427 15,100 -1,680 Descending FlightAware
06:42AM 32.8450 34.0830 122° Southeast 361 415 14,700 -1,080 Descending FlightAware
06:42AM 32.8310 34.0990 136° Southeast 345 397 14,600 -660 Descending FlightAware
06:43AM 32.8080 34.1150 150° Southeast 348 400 14,400 -1,020 Descending FlightAware
06:43AM 32.7880 34.1220 164° South 346 398 14,100 -1,140 Descending FlightAware
06:44AM 32.7170 34.1270 177° South 338 389 13,300 -840 Descending FlightAware
06:45AM 32.6310 34.1320 177° South 336 387 12,700 -1,080 Descending FlightAware
06:45AM 32.5690 34.1340 178° South 329 379 11,600 -1,560 Descending FlightAware
06:46AM 32.5470 34.1390 169° South 326 375 11,400 -840 Descending FlightAware
06:46AM 32.5250 34.1480 161° South 325 374 11,200 -1,080 Descending FlightAware
06:46AM 32.5020 34.1680 144° Southeast 323 372 10,800 -1,080 Descending FlightAware
06:47AM 32.4630 34.2100 138° Southeast 312 359 10,200 -1,200 Descending FlightAware
06:47AM 32.4410 34.2330 139° Southeast 308 354 9,700 -1,320 Descending FlightAware
06:47AM 32.4230 34.2530 137° Southeast 304 350 9,400 -1,200 Descending FlightAware
06:48AM 32.3980 34.2770 141° Southeast 299 344 8,900 -1,320 Descending FlightAware
06:48AM 32.3720 34.3030 140° Southeast 294 338 8,400 -1,140 Descending FlightAware
06:48AM 32.3520 34.3230 140° Southeast 289 333 8,100 -480 Descending FlightAware
06:49AM 32.3240 34.3520 139° Southeast 287 330 8,000 -240 Descending FlightAware
06:52AM 32.0883 34.6918 125° Southeast  Level FlightAware Approximate
06:53AM 32.0145 34.8426 125° Southeast  Level FlightAware Approximate
06:54AM 32.0000 34.8667 125° Southeast  Level FlightAware Approximate
06:55AM 32.0095 34.8769 125° Southeast  Level Estimated
06:56AM 32.0095 34.8769 125° Southeast  Level Estimated
06:57AM 32.0095 34.8769 125° Southeast  Level Estimated
06:58AM 32.0095 34.8769 125° Southeast  Level Estimated
06:59AM 32.0095 34.8769 125° Southeast  Level Estimated
07:00AM 32.0095 34.8769 125° Southeast  Level Estimated